Time;durP1;ratioP1;P1;durP2;ratioP2;P2;SDS_P1;SDS_P2;PMS_P1;PMS_P2;Temp;Humidity;BMP_temperature;BMP_pressure;BME280_temperature;BME280_humidity;BME280_pressure;Samples;Min_cycle;Max_cycle;Signal;HPM_P1;HPM_P2
2023/11/11 00:01:57;;;;;;;1.83;1.60;;;8.80;96.60;;;;;;4915440;29;20107;-82
2023/11/11 00:04:24;;;;;;;2.88;1.60;;;8.80;96.60;;;;;;4902631;29;20168;-82
2023/11/11 00:06:50;;;;;;;2.13;1.63;;;8.80;96.70;;;;;;4903421;29;20103;-81
2023/11/11 00:09:18;;;;;;;2.30;1.70;;;8.80;96.70;;;;;;4901194;29;20642;-82
2023/11/11 00:11:44;;;;;;;1.60;1.50;;;8.80;96.80;;;;;;4909935;29;20073;-82
2023/11/11 00:14:12;;;;;;;1.83;1.63;;;8.80;96.80;;;;;;4901565;29;20032;-82
2023/11/11 00:16:38;;;;;;;1.67;1.42;;;8.70;96.80;;;;;;4900401;29;20035;-82
2023/11/11 00:19:03;;;;;;;1.65;1.52;;;8.70;96.80;;;;;;4900742;29;20025;-82
2023/11/11 00:21:29;;;;;;;1.90;1.70;;;8.70;96.80;;;;;;4898517;29;20290;-82
2023/11/11 00:23:58;;;;;;;3.40;2.00;;;8.70;96.80;;;;;;4900924;29;20028;-82
2023/11/11 00:26:24;;;;;;;2.20;2.00;;;8.70;96.90;;;;;;4897902;29;20036;-82
2023/11/11 00:28:50;;;;;;;3.45;2.20;;;8.70;96.90;;;;;;4903382;29;20056;-82
2023/11/11 00:31:16;;;;;;;2.58;1.85;;;8.60;96.80;;;;;;4891702;29;20037;-83
2023/11/11 00:33:42;;;;;;;2.10;1.90;;;8.60;96.70;;;;;;4895675;29;20100;-82
2023/11/11 00:36:12;;;;;;;2.05;1.65;;;8.60;96.80;;;;;;4897538;29;20047;-82
2023/11/11 00:38:38;;;;;;;1.92;1.60;;;8.60;96.70;;;;;;4898386;29;20487;-83
2023/11/11 00:41:03;;;;;;;1.65;1.55;;;8.50;96.70;;;;;;4912457;29;20080;-82
2023/11/11 00:43:30;;;;;;;1.75;1.65;;;8.60;96.80;;;;;;4904109;29;20016;-81
2023/11/11 00:45:55;;;;;;;2.15;1.75;;;8.60;96.80;;;;;;4903856;29;20027;-83
2023/11/11 00:48:22;;;;;;;2.65;1.70;;;8.50;96.80;;;;;;4901260;29;20020;-82
2023/11/11 00:50:47;;;;;;;2.20;1.63;;;8.50;96.90;;;;;;4909047;29;20063;-82
2023/11/11 00:53:14;;;;;;;2.30;1.58;;;8.50;96.90;;;;;;4910029;29;20060;-81
2023/11/11 00:55:40;;;;;;;2.75;1.60;;;8.50;96.90;;;;;;4913926;29;20435;-82
2023/11/11 00:58:05;;;;;;;1.70;1.60;;;8.50;96.80;;;;;;4905457;29;20029;-82
2023/11/11 01:00:31;;;;;;;3.10;1.55;;;8.40;96.90;;;;;;4909049;29;20092;-82
2023/11/11 01:02:58;;;;;;;1.73;1.40;;;8.40;96.90;;;;;;4903963;29;20040;-82
2023/11/11 01:05:24;;;;;;;1.70;1.40;;;8.40;97.00;;;;;;4899521;29;20024;-81
2023/11/11 01:07:49;;;;;;;1.42;1.33;;;8.40;97.10;;;;;;4898350;29;20550;-82
2023/11/11 01:10:18;;;;;;;2.33;1.80;;;8.40;97.10;;;;;;4906664;29;20031;-83
2023/11/11 01:12:44;;;;;;;2.75;1.50;;;8.30;97.10;;;;;;4924552;29;20084;-81
2023/11/11 01:15:12;;;;;;;2.40;1.77;;;8.30;97.10;;;;;;4903192;29;20033;-82
2023/11/11 01:17:37;;;;;;;2.33;1.70;;;8.30;97.10;;;;;;4902012;29;20049;-81
2023/11/11 01:20:03;;;;;;;2.45;1.45;;;8.30;97.10;;;;;;4905062;29;20425;-82
2023/11/11 01:22:29;;;;;;;1.70;1.40;;;8.30;97.20;;;;;;4904552;29;20492;-82
2023/11/11 01:24:55;;;;;;;2.10;1.40;;;8.30;97.10;;;;;;4897178;29;20434;-82
2023/11/11 01:27:21;;;;;;;1.60;1.50;;;8.30;97.20;;;;;;4901288;29;20028;-82
2023/11/11 01:29:47;;;;;;;1.58;1.48;;;8.30;97.10;;;;;;4914993;29;20051;-81
2023/11/11 01:32:12;;;;;;;1.42;1.33;;;8.30;97.20;;;;;;4903552;29;20387;-82
2023/11/11 01:34:38;;;;;;;1.40;1.30;;;8.30;97.20;;;;;;4915654;29;20092;-81
2023/11/11 01:37:08;;;;;;;1.63;1.50;;;8.30;97.30;;;;;;4907927;29;20085;-81
2023/11/11 01:39:34;;;;;;;2.75;1.70;;;8.20;97.30;;;;;;4901188;29;20400;-82
2023/11/11 01:42:01;;;;;;;2.22;1.45;;;8.20;97.30;;;;;;4901760;29;20029;-82
2023/11/11 01:44:26;;;;;;;1.77;1.40;;;8.20;97.30;;;;;;4901929;29;20099;-81
2023/11/11 01:46:52;;;;;;;3.72;1.70;;;8.20;97.20;;;;;;4910106;29;20059;-82
2023/11/11 01:49:21;;;;;;;1.85;1.70;;;8.20;97.20;;;;;;4905323;29;20024;-81
2023/11/11 01:51:48;;;;;;;2.10;1.88;;;8.30;97.30;;;;;;4912528;29;20028;-82
2023/11/11 01:54:15;;;;;;;1.90;1.60;;;8.30;97.20;;;;;;4903420;29;20095;-81
2023/11/11 01:56:41;;;;;;;3.65;1.50;;;8.30;97.10;;;;;;4908868;29;20027;-82
2023/11/11 01:59:07;;;;;;;1.63;1.48;;;8.30;97.10;;;;;;4900132;29;20024;-83
2023/11/11 02:01:33;;;;;;;2.53;1.30;;;8.30;97.10;;;;;;4910924;29;20115;-84
2023/11/11 02:03:59;;;;;;;1.52;1.40;;;8.30;97.00;;;;;;4915237;29;20158;-81
2023/11/11 02:06:27;;;;;;;1.48;1.20;;;8.30;96.90;;;;;;4900385;29;20547;-82
2023/11/11 02:08:52;;;;;;;1.40;1.23;;;8.30;96.90;;;;;;4902630;29;20403;-81
2023/11/11 02:11:18;;;;;;;1.38;1.27;;;8.40;96.90;;;;;;4904904;29;20028;-79
2023/11/11 02:13:44;;;;;;;1.70;1.50;;;8.30;96.90;;;;;;4903231;29;20044;-81
2023/11/11 02:16:11;;;;;;;2.75;1.23;;;8.30;96.80;;;;;;4901611;29;20285;-81
2023/11/11 02:18:37;;;;;;;1.73;1.10;;;8.40;96.90;;;;;;4906368;29;20036;-82
2023/11/11 02:21:03;;;;;;;2.08;1.40;;;8.40;96.80;;;;;;4902600;29;20473;-82
2023/11/11 02:23:35;;;;;;;1.52;1.40;;;8.40;96.70;;;;;;4902838;29;22505;-81
2023/11/11 02:26:02;;;;;;;1.10;1.00;;;8.40;96.60;;;;;;4911427;29;20038;-82
2023/11/11 02:28:28;;;;;;;1.35;1.10;;;8.40;96.60;;;;;;4906297;29;20043;-83
2023/11/11 02:30:54;;;;;;;1.15;1.05;;;8.40;96.60;;;;;;4899660;29;20419;-83
2023/11/11 02:33:20;;;;;;;2.03;1.17;;;8.40;96.60;;;;;;4903050;29;20038;-81
2023/11/11 02:35:46;;;;;;;1.63;1.10;;;8.40;96.70;;;;;;4908730;29;20506;-81
2023/11/11 02:38:12;;;;;;;1.27;0.82;;;8.40;96.60;;;;;;4904893;29;20029;-81
2023/11/11 02:40:39;;;;;;;0.77;0.77;;;8.40;96.60;;;;;;4905712;29;20445;-82
2023/11/11 02:43:05;;;;;;;1.13;0.80;;;8.40;96.70;;;;;;4902130;29;20028;-81
2023/11/11 02:45:31;;;;;;;1.92;0.90;;;8.40;96.70;;;;;;4906564;29;20409;-81
2023/11/11 02:47:58;;;;;;;2.25;0.90;;;8.40;96.70;;;;;;4899002;29;20021;-81
2023/11/11 02:50:23;;;;;;;0.90;0.90;;;8.40;96.70;;;;;;4903293;29;20083;-80
2023/11/11 02:52:49;;;;;;;1.02;0.80;;;8.40;96.90;;;;;;4895830;29;20265;-81
2023/11/11 02:55:18;;;;;;;1.35;1.02;;;8.40;96.70;;;;;;4906172;29;20107;-82
2023/11/11 02:57:44;;;;;;;0.90;0.70;;;8.40;96.70;;;;;;4911529;29;20032;-81
2023/11/11 03:00:11;;;;;;;1.30;0.95;;;8.30;96.70;;;;;;4908711;29;20039;-80
2023/11/11 03:02:37;;;;;;;1.35;0.80;;;8.30;96.60;;;;;;4905294;29;20031;-81
2023/11/11 03:05:04;;;;;;;1.35;0.90;;;8.30;96.60;;;;;;4898223;29;20471;-81
2023/11/11 03:07:29;;;;;;;1.30;1.05;;;8.30;96.50;;;;;;4904727;29;20372;-81
2023/11/11 03:09:55;;;;;;;1.05;0.95;;;8.30;96.50;;;;;;4909502;29;20031;-82
2023/11/11 03:12:21;;;;;;;0.82;0.82;;;8.30;96.40;;;;;;4920265;29;20961;-81
2023/11/11 03:14:46;;;;;;;0.80;0.77;;;8.30;96.40;;;;;;4904789;29;20103;-81
2023/11/11 03:17:12;;;;;;;0.80;0.80;;;8.30;96.30;;;;;;4904460;29;20095;-81
2023/11/11 03:19:39;;;;;;;0.75;0.75;;;8.30;96.30;;;;;;4904402;29;20440;-81
2023/11/11 03:22:04;;;;;;;0.60;0.60;;;8.30;96.40;;;;;;4902554;29;20042;-80
2023/11/11 03:24:30;;;;;;;0.70;0.70;;;8.20;96.30;;;;;;4916021;29;21317;-80
2023/11/11 03:26:56;;;;;;;0.70;0.70;;;8.30;96.40;;;;;;4904680;29;20395;-80
2023/11/11 03:29:22;;;;;;;1.42;0.70;;;8.30;96.40;;;;;;4907731;29;20092;-83
2023/11/11 03:31:47;;;;;;;0.60;0.60;;;8.30;96.40;;;;;;4918663;29;20083;-83
2023/11/11 03:34:13;;;;;;;0.60;0.60;;;8.30;96.40;;;;;;4912042;29;20028;-83
2023/11/11 03:36:38;;;;;;;0.60;0.60;;;8.40;96.40;;;;;;4908978;29;20027;-82
2023/11/11 03:39:04;;;;;;;0.63;0.60;;;8.40;96.30;;;;;;4902144;29;20035;-82
2023/11/11 03:41:29;;;;;;;0.60;0.60;;;8.40;96.20;;;;;;4905214;29;20044;-80
2023/11/11 03:43:55;;;;;;;0.60;0.60;;;8.40;96.20;;;;;;4904051;29;20032;-80
2023/11/11 03:46:21;;;;;;;0.60;0.60;;;8.40;96.10;;;;;;4905236;29;20033;-79
2023/11/11 03:48:46;;;;;;;1.40;0.60;;;8.40;96.20;;;;;;4902824;29;20028;-80
2023/11/11 03:51:12;;;;;;;0.80;0.60;;;8.40;96.20;;;;;;4908046;29;20516;-80
2023/11/11 03:53:37;;;;;;;0.60;0.60;;;8.40;96.20;;;;;;4901294;29;20037;-81
2023/11/11 03:56:04;;;;;;;0.50;0.50;;;8.40;96.20;;;;;;4908673;29;20036;-80
2023/11/11 03:58:30;;;;;;;0.50;0.50;;;8.40;96.20;;;;;;4913631;29;20469;-81
2023/11/11 04:00:55;;;;;;;0.50;0.50;;;8.30;96.20;;;;;;4906899;29;20064;-81
2023/11/11 04:03:21;;;;;;;0.70;0.60;;;8.30;96.30;;;;;;4903300;29;20028;-81
2023/11/11 04:05:47;;;;;;;0.60;0.60;;;8.20;96.30;;;;;;4907363;29;20036;-81
2023/11/11 04:08:13;;;;;;;0.82;0.50;;;8.20;96.40;;;;;;4904009;29;20084;-81
2023/11/11 04:10:39;;;;;;;0.60;0.60;;;8.10;96.50;;;;;;4899651;29;20365;-81
2023/11/11 04:13:05;;;;;;;0.57;0.57;;;8.10;96.60;;;;;;4898432;29;20103;-81
2023/11/11 04:15:31;;;;;;;0.80;0.60;;;8.10;96.70;;;;;;4905147;29;20083;-81
2023/11/11 04:17:57;;;;;;;0.60;0.60;;;8.10;96.80;;;;;;4919244;29;20035;-82
2023/11/11 04:20:23;;;;;;;0.50;0.50;;;8.10;96.80;;;;;;4911468;29;20024;-82
2023/11/11 04:22:48;;;;;;;1.48;0.65;;;8.00;96.70;;;;;;4907461;29;20031;-82
2023/11/11 04:25:14;;;;;;;0.60;0.60;;;8.00;96.80;;;;;;4908252;29;20403;-82
2023/11/11 04:27:44;;;;;;;0.50;0.50;;;8.00;96.90;;;;;;4909467;29;20028;-82
2023/11/11 04:30:10;;;;;;;0.60;0.60;;;8.00;96.90;;;;;;4900532;29;20024;-82
2023/11/11 04:32:36;;;;;;;0.63;0.60;;;7.90;96.90;;;;;;4910505;29;20128;-81
2023/11/11 04:35:03;;;;;;;1.92;0.70;;;7.90;96.90;;;;;;4907440;29;20447;-81
2023/11/11 04:37:30;;;;;;;0.90;0.63;;;7.90;97.00;;;;;;4907956;29;20107;-81
2023/11/11 04:39:57;;;;;;;1.10;0.85;;;7.90;97.00;;;;;;4907902;29;20030;-82
2023/11/11 04:42:24;;;;;;;0.95;0.60;;;7.90;97.00;;;;;;4906152;29;20028;-82
2023/11/11 04:44:51;;;;;;;0.65;0.65;;;8.00;97.10;;;;;;4904325;29;20028;-82
2023/11/11 04:47:18;;;;;;;0.80;0.70;;;8.00;97.00;;;;;;4900499;29;20037;-82
2023/11/11 04:49:44;;;;;;;0.60;0.60;;;8.00;96.90;;;;;;4912507;29;20479;-83
2023/11/11 04:52:10;;;;;;;0.80;0.70;;;8.00;96.90;;;;;;4915870;29;20112;-82
2023/11/11 04:54:36;;;;;;;0.95;0.70;;;8.00;96.90;;;;;;4924178;29;20563;-83
2023/11/11 04:57:01;;;;;;;0.70;0.70;;;8.00;96.80;;;;;;4913336;29;20032;-83
2023/11/11 04:59:28;;;;;;;1.80;0.70;;;8.00;96.80;;;;;;4908230;29;20103;-82
2023/11/11 05:01:54;;;;;;;1.20;0.80;;;8.00;96.80;;;;;;4903425;29;20031;-83
2023/11/11 05:04:21;;;;;;;0.60;0.60;;;8.10;96.80;;;;;;4902814;29;20111;-83
2023/11/11 05:06:46;;;;;;;0.82;0.80;;;8.10;96.80;;;;;;4901420;29;20500;-82
2023/11/11 05:09:12;;;;;;;0.93;0.90;;;8.10;96.80;;;;;;4905761;29;20032;-82
2023/11/11 05:11:40;;;;;;;1.33;0.70;;;8.10;96.70;;;;;;4907750;29;20032;-83
2023/11/11 05:14:07;;;;;;;2.45;0.70;;;8.20;96.70;;;;;;4901265;29;20044;-83
2023/11/11 05:16:39;;;;;;;0.68;0.68;;;8.20;96.60;;;;;;4906477;29;20028;-83
2023/11/11 05:19:06;;;;;;;0.68;0.68;;;8.20;96.50;;;;;;4908357;29;20025;-83
2023/11/11 05:21:32;;;;;;;0.68;0.68;;;8.30;96.50;;;;;;4900380;29;20027;-83
2023/11/11 05:23:57;;;;;;;0.63;0.63;;;8.30;96.40;;;;;;4907106;29;20407;-82
2023/11/11 05:26:23;;;;;;;0.60;0.60;;;8.30;96.40;;;;;;4921085;29;20428;-82
2023/11/11 05:28:48;;;;;;;0.60;0.60;;;8.30;96.30;;;;;;4904885;29;20108;-81
2023/11/11 05:31:14;;;;;;;0.63;0.63;;;8.30;96.30;;;;;;4903779;29;20028;-82
2023/11/11 05:33:39;;;;;;;0.70;0.70;;;8.30;96.30;;;;;;4907006;29;20103;-81
2023/11/11 05:36:13;;;;;;;0.63;0.63;;;8.20;96.40;;;;;;4906070;29;20039;-81
2023/11/11 05:38:39;;;;;;;0.77;0.70;;;8.30;96.50;;;;;;4905916;29;20020;-82
2023/11/11 05:41:05;;;;;;;0.90;0.70;;;8.20;96.40;;;;;;4909955;29;20414;-79
2023/11/11 05:43:31;;;;;;;0.60;0.60;;;8.20;96.50;;;;;;4905643;29;20036;-81
2023/11/11 05:45:56;;;;;;;1.20;0.70;;;8.20;96.50;;;;;;4899829;29;20032;-80
2023/11/11 05:48:22;;;;;;;0.88;0.60;;;8.10;96.60;;;;;;4901081;29;20032;-81
2023/11/11 05:50:47;;;;;;;0.70;0.70;;;8.10;96.60;;;;;;4921268;29;20070;-82
2023/11/11 05:53:14;;;;;;;0.63;0.63;;;8.10;96.70;;;;;;4907503;29;20218;-81
2023/11/11 05:55:39;;;;;;;0.75;0.63;;;8.00;96.80;;;;;;4907842;29;20024;-81
2023/11/11 05:58:05;;;;;;;0.63;0.60;;;8.10;96.80;;;;;;4897815;29;20031;-81
2023/11/11 06:00:31;;;;;;;0.75;0.68;;;8.10;96.80;;;;;;4899092;29;20107;-81
2023/11/11 06:02:56;;;;;;;0.70;0.70;;;8.10;96.80;;;;;;4920132;29;20475;-81
2023/11/11 06:05:22;;;;;;;1.38;0.77;;;8.00;96.80;;;;;;4907712;29;20895;-81
2023/11/11 06:07:48;;;;;;;0.98;0.90;;;8.00;96.80;;;;;;4914890;29;20028;-81
2023/11/11 06:10:14;;;;;;;1.65;0.90;;;8.00;96.80;;;;;;4908494;29;20079;-80
2023/11/11 06:12:40;;;;;;;0.65;0.65;;;8.10;96.80;;;;;;4901166;29;20033;-81
2023/11/11 06:15:08;;;;;;;1.00;0.60;;;8.00;96.70;;;;;;4903508;29;20032;-81
2023/11/11 06:17:34;;;;;;;0.60;0.60;;;8.00;96.70;;;;;;4903551;29;20045;-81
2023/11/11 06:19:59;;;;;;;0.60;0.60;;;8.00;97.00;;;;;;4901677;29;20107;-81
2023/11/11 06:22:26;;;;;;;0.55;0.50;;;8.00;96.80;;;;;;4906965;29;20491;-80
2023/11/11 06:24:51;;;;;;;0.60;0.60;;;8.00;96.70;;;;;;4902566;29;20043;-80
2023/11/11 06:27:17;;;;;;;0.98;0.60;;;8.00;96.70;;;;;;4904971;29;20029;-81
2023/11/11 06:29:43;;;;;;;0.60;0.60;;;8.00;96.80;;;;;;4901080;29;20731;-81
2023/11/11 06:32:08;;;;;;;0.57;0.57;;;8.00;96.70;;;;;;4904912;29;20035;-81
2023/11/11 06:34:34;;;;;;;0.60;0.60;;;8.00;96.80;;;;;;4895017;29;20395;-81
2023/11/11 06:36:59;;;;;;;0.70;0.70;;;8.10;96.80;;;;;;4896295;29;20031;-81
2023/11/11 06:39:25;;;;;;;0.55;0.55;;;8.10;96.70;;;;;;4891101;29;20024;-81
2023/11/11 06:41:51;;;;;;;0.55;0.55;;;8.10;96.70;;;;;;4895797;29;20456;-82
2023/11/11 06:44:16;;;;;;;0.50;0.50;;;8.10;96.60;;;;;;4893042;29;20040;-82
2023/11/11 06:46:42;;;;;;;0.52;0.52;;;8.20;96.50;;;;;;4897009;29;20052;-83
2023/11/11 06:49:07;;;;;;;0.85;0.68;;;8.20;96.40;;;;;;4890430;29;20036;-81
2023/11/11 06:51:34;;;;;;;0.50;0.50;;;8.20;96.30;;;;;;4893259;29;20021;-82
2023/11/11 06:54:00;;;;;;;0.60;0.60;;;8.20;96.30;;;;;;4891593;29;20559;-82
2023/11/11 06:56:26;;;;;;;1.20;0.80;;;8.20;96.50;;;;;;4891587;29;20465;-81
2023/11/11 06:58:52;;;;;;;0.50;0.50;;;8.20;96.20;;;;;;4891814;29;20033;-81
2023/11/11 07:01:22;;;;;;;0.50;0.50;;;8.20;96.20;;;;;;4892203;29;20072;-81
2023/11/11 07:03:49;;;;;;;4.63;2.95;;;8.20;96.20;;;;;;4893741;29;20032;-82
2023/11/11 07:06:22;;;;;;;3.97;2.65;;;8.20;96.20;;;;;;4893253;29;20044;-82
2023/11/11 07:08:49;;;;;;;3.10;1.85;;;8.10;96.20;;;;;;4890684;29;20036;-83
2023/11/11 07:11:15;;;;;;;3.63;2.40;;;8.10;96.20;;;;;;4894721;29;20020;-82
2023/11/11 07:13:41;;;;;;;6.50;3.47;;;8.10;96.10;;;;;;4889048;29;20040;-82
2023/11/11 07:16:08;;;;;;;5.18;3.55;;;8.00;96.20;;;;;;4892009;29;20033;-82
2023/11/11 07:18:35;;;;;;;8.60;6.05;;;8.00;96.30;;;;;;4894079;29;20052;-82
2023/11/11 07:21:01;;;;;;;7.32;5.35;;;8.00;96.30;;;;;;4893068;29;20492;-82
2023/11/11 07:23:27;;;;;;;7.00;4.38;;;8.10;96.30;;;;;;4892289;29;20037;-82
2023/11/11 07:25:54;;;;;;;4.00;3.03;;;8.00;96.30;;;;;;4893447;29;20032;-82
2023/11/11 07:28:23;;;;;;;3.42;2.20;;;8.00;96.20;;;;;;4880534;29;20029;-81
2023/11/11 07:30:49;;;;;;;2.92;1.80;;;8.00;96.30;;;;;;4892196;29;20021;-81
2023/11/11 07:33:15;;;;;;;3.78;3.40;;;8.00;96.20;;;;;;4897036;29;20036;-82
2023/11/11 07:35:40;;;;;;;2.17;1.70;;;8.00;96.20;;;;;;4894185;29;20123;-81
2023/11/11 07:38:06;;;;;;;1.35;1.20;;;8.00;96.30;;;;;;4896956;29;20021;-81
2023/11/11 07:40:32;;;;;;;1.17;0.98;;;7.90;96.20;;;;;;4900760;29;20032;-82
2023/11/11 07:42:57;;;;;;;0.85;0.80;;;7.90;96.20;;;;;;4891951;29;20088;-83
2023/11/11 07:45:24;;;;;;;0.90;0.90;;;7.80;96.20;;;;;;4893096;29;20032;-81
2023/11/11 07:47:51;;;;;;;0.80;0.80;;;7.80;96.20;;;;;;4893417;29;20024;-82
2023/11/11 07:50:18;;;;;;;1.50;0.80;;;7.80;96.30;;;;;;4892041;29;20760;-81
2023/11/11 07:52:44;;;;;;;0.80;0.80;;;7.80;96.30;;;;;;4895844;29;20041;-81
2023/11/11 07:55:10;;;;;;;0.63;0.63;;;7.80;96.30;;;;;;4895151;29;20036;-81
2023/11/11 07:57:36;;;;;;;0.77;0.77;;;7.90;96.30;;;;;;4899893;29;20020;-82
2023/11/11 08:00:06;;;;;;;0.50;0.50;;;7.90;96.20;;;;;;4902214;29;20028;-82
2023/11/11 08:02:32;;;;;;;0.75;0.70;;;7.90;96.10;;;;;;4907420;29;20028;-83
2023/11/11 08:04:58;;;;;;;0.70;0.70;;;7.90;96.10;;;;;;4915578;28;20036;-86
2023/11/11 08:07:24;;;;;;;0.80;0.80;;;8.00;96.10;;;;;;4921513;28;20028;-81
2023/11/11 08:09:50;;;;;;;0.77;0.77;;;8.00;96.00;;;;;;4904809;29;20585;-81
2023/11/11 08:12:17;;;;;;;0.68;0.68;;;8.00;96.00;;;;;;4906251;29;20054;-85
2023/11/11 08:14:43;;;;;;;0.65;0.65;;;8.10;95.90;;;;;;4899001;29;20040;-82
2023/11/11 08:17:08;;;;;;;0.70;0.70;;;8.10;95.80;;;;;;4893333;29;20123;-82
2023/11/11 08:19:34;;;;;;;0.80;0.80;;;8.20;95.70;;;;;;4895409;29;20033;-82
2023/11/11 08:22:00;;;;;;;0.90;0.90;;;8.20;95.70;;;;;;4900195;29;20726;-82
2023/11/11 08:24:25;;;;;;;1.10;0.60;;;8.30;95.50;;;;;;4896510;29;20120;-83
2023/11/11 08:26:51;;;;;;;0.70;0.70;;;8.40;95.40;;;;;;4898922;29;20036;-82
2023/11/11 08:29:17;;;;;;;0.73;0.70;;;8.40;95.20;;;;;;4898694;29;20075;-82
2023/11/11 08:31:43;;;;;;;1.00;0.90;;;8.50;95.10;;;;;;4897307;29;20446;-82
2023/11/11 08:34:09;;;;;;;0.60;0.60;;;8.60;94.90;;;;;;4901749;29;20044;-82
2023/11/11 08:36:36;;;;;;;0.60;0.60;;;8.70;94.80;;;;;;4902283;29;20033;-81
2023/11/11 08:39:02;;;;;;;0.70;0.70;;;8.70;94.60;;;;;;4899663;29;20052;-80
2023/11/11 08:41:28;;;;;;;0.95;0.50;;;8.80;94.40;;;;;;4897736;29;20555;-81
2023/11/11 08:43:53;;;;;;;0.50;0.50;;;8.90;94.30;;;;;;4902694;29;20107;-81
2023/11/11 08:46:19;;;;;;;0.50;0.50;;;8.90;94.30;;;;;;4900494;29;20020;-82
2023/11/11 08:48:45;;;;;;;0.50;0.50;;;8.90;94.30;;;;;;4902515;29;20104;-81
2023/11/11 08:51:13;;;;;;;0.85;0.63;;;8.90;94.30;;;;;;4914874;29;20029;-82
2023/11/11 08:53:39;;;;;;;0.50;0.50;;;8.90;94.30;;;;;;4902568;29;20032;-81
2023/11/11 08:56:04;;;;;;;0.60;0.60;;;8.90;94.20;;;;;;4901015;29;20089;-81
2023/11/11 08:58:30;;;;;;;0.60;0.60;;;8.90;94.10;;;;;;4903594;29;20017;-81
2023/11/11 09:00:56;;;;;;;0.50;0.50;;;8.90;94.20;;;;;;4900798;29;20326;-81
2023/11/11 09:03:22;;;;;;;0.60;0.50;;;9.00;94.30;;;;;;4899271;29;20448;-81
2023/11/11 09:05:48;;;;;;;0.75;0.57;;;9.00;94.20;;;;;;4901773;29;20084;-81
2023/11/11 09:08:13;;;;;;;1.00;0.57;;;9.10;94.10;;;;;;4902274;29;20531;-83
2023/11/11 09:10:40;;;;;;;1.27;0.75;;;9.20;94.10;;;;;;4909369;29;20383;-83
2023/11/11 09:13:08;;;;;;;0.75;0.70;;;9.20;93.90;;;;;;4907749;29;20483;-82
2023/11/11 09:15:34;;;;;;;0.68;0.60;;;9.20;93.90;;;;;;4906920;29;20033;-83
2023/11/11 09:18:01;;;;;;;0.57;0.57;;;9.10;93.90;;;;;;4899762;29;20024;-83
2023/11/11 09:20:26;;;;;;;0.55;0.55;;;9.10;94.00;;;;;;4904307;29;20148;-84
2023/11/11 09:22:52;;;;;;;0.55;0.55;;;9.10;94.00;;;;;;4901536;29;20092;-84
2023/11/11 09:25:18;;;;;;;0.90;0.60;;;9.10;94.00;;;;;;4906253;29;20028;-82
2023/11/11 09:27:44;;;;;;;0.50;0.50;;;9.20;94.00;;;;;;4901738;29;20052;-82
2023/11/11 09:30:09;;;;;;;0.60;0.60;;;9.20;94.00;;;;;;4900823;29;20123;-81
2023/11/11 09:32:35;;;;;;;0.73;0.68;;;9.30;94.00;;;;;;4919292;29;20029;-82
2023/11/11 09:35:02;;;;;;;0.95;0.70;;;9.40;93.90;;;;;;4903558;29;20535;-82
2023/11/11 09:37:28;;;;;;;0.85;0.63;;;9.40;93.80;;;;;;4897408;29;20421;-83
2023/11/11 09:39:53;;;;;;;0.73;0.70;;;9.40;93.70;;;;;;4895582;29;20036;-83
2023/11/11 09:42:20;;;;;;;0.60;0.60;;;9.40;93.60;;;;;;4890912;29;20526;-82
2023/11/11 09:44:45;;;;;;;1.55;0.80;;;9.30;93.60;;;;;;4902021;29;20020;-83
2023/11/11 09:47:14;;;;;;;0.75;0.70;;;9.20;93.80;;;;;;4909910;29;20024;-83
2023/11/11 09:49:40;;;;;;;1.77;0.90;;;9.20;93.90;;;;;;4903452;29;20092;-83
2023/11/11 09:52:12;;;;;;;1.33;0.80;;;9.10;93.90;;;;;;4907360;29;20019;-83
2023/11/11 09:54:40;;;;;;;1.05;0.80;;;9.00;94.00;;;;;;4908265;29;20044;-83
2023/11/11 09:57:10;;;;;;;1.17;0.80;;;9.00;94.20;;;;;;4898957;29;20028;-82
2023/11/11 09:59:36;;;;;;;1.15;0.82;;;9.00;94.20;;;;;;4905091;29;20080;-84
2023/11/11 10:02:02;;;;;;;1.90;0.85;;;9.00;94.40;;;;;;4908089;29;20274;-83
2023/11/11 10:04:28;;;;;;;0.70;0.70;;;9.10;94.50;;;;;;4908180;29;20504;-83
2023/11/11 10:06:54;;;;;;;1.70;0.90;;;9.10;94.50;;;;;;4910531;29;20048;-83
2023/11/11 10:09:20;;;;;;;0.90;0.90;;;9.20;94.50;;;;;;4905317;29;20040;-84
2023/11/11 10:11:46;;;;;;;1.52;0.80;;;9.30;94.40;;;;;;4905777;29;20048;-83
2023/11/11 10:14:15;;;;;;;1.90;1.00;;;9.30;94.40;;;;;;4911729;29;20218;-84
2023/11/11 10:16:43;;;;;;;1.63;1.10;;;9.40;94.30;;;;;;4909861;29;20147;-83
2023/11/11 10:19:14;;;;;;;3.20;1.60;;;9.40;94.20;;;;;;4904180;29;20376;-81
2023/11/11 10:21:40;;;;;;;1.52;1.10;;;9.40;94.10;;;;;;4906093;29;20775;-83
2023/11/11 10:24:08;;;;;;;1.23;1.10;;;9.50;94.20;;;;;;4901574;29;20169;-83
2023/11/11 10:26:34;;;;;;;1.95;1.17;;;9.50;94.10;;;;;;4908247;29;20039;-83
2023/11/11 10:29:08;;;;;;;1.20;1.10;;;9.60;94.10;;;;;;4916295;29;20029;-83
2023/11/11 10:31:37;;;;;;;1.98;1.45;;;9.60;94.10;;;;;;4925099;29;20075;-82
2023/11/11 10:34:03;;;;;;;1.77;1.20;;;9.70;94.10;;;;;;4913736;29;20560;-83
2023/11/11 10:36:40;;;;;;;3.65;1.50;;;9.70;94.10;;;;;;4907921;29;20021;-83
2023/11/11 10:39:12;;;;;;;1.30;1.20;;;9.80;94.10;;;;;;4906913;29;20191;-82
2023/11/11 10:41:43;;;;;;;1.95;1.40;;;9.80;94.00;;;;;;4911032;29;20029;-84
2023/11/11 10:44:09;;;;;;;10.35;2.53;;;9.90;94.30;;;;;;4919586;29;20017;-84
2023/11/11 10:46:36;;;;;;;2.95;1.80;;;10.00;93.90;;;;;;4916719;29;20033;-84
2023/11/11 10:49:04;;;;;;;1.80;1.30;;;9.90;93.70;;;;;;4909953;28;20516;-82
2023/11/11 10:51:31;;;;;;;2.80;1.60;;;10.00;93.70;;;;;;4914797;29;20052;-87
2023/11/11 10:54:00;;;;;;;3.17;1.70;;;10.00;93.80;;;;;;4917264;28;20121;-86
2023/11/11 10:56:28;;;;;;;1.20;1.10;;;10.00;93.70;;;;;;4914567;29;20027;-84
2023/11/11 10:58:54;;;;;;;1.58;1.05;;;10.00;93.70;;;;;;4912802;29;20069;-83
2023/11/11 11:01:21;;;;;;;1.55;1.30;;;10.10;93.70;;;;;;4907866;29;20023;-84
2023/11/11 11:03:47;;;;;;;2.60;1.20;;;10.10;93.60;;;;;;4914228;29;20024;-83
2023/11/11 11:06:39;;;;;;;1.77;1.25;;;10.20;93.70;;;;;;4911719;29;20020;-87
2023/11/11 11:09:24;;;;;;;2.10;1.30;;;10.20;93.60;;;;;;4922031;28;20080;-86
2023/11/11 11:12:00;;;;;;;1.20;0.90;;;10.30;93.40;;;;;;4921538;28;20031;-86
2023/11/11 11:14:45;;;;;;;2.15;1.38;;;10.30;93.30;;;;;;4925900;29;20032;-85
2023/11/11 11:17:10;;;;;;;1.92;1.05;;;10.20;93.30;;;;;;4915707;28;20031;-87
2023/11/11 11:19:52;;;;;;;1.65;1.13;;;10.30;93.30;;;;;;4910767;29;20013;-85
2023/11/11 11:22:22;;;;;;;1.63;1.20;;;10.40;93.40;;;;;;4908598;29;20047;-86
2023/11/11 11:24:49;;;;;;;1.90;1.20;;;10.50;93.30;;;;;;4914703;29;20024;-84
2023/11/11 11:27:15;;;;;;;2.47;1.17;;;10.60;93.10;;;;;;5014480;23;20058;-85
2023/11/11 11:29:41;;;;;;;3.00;1.30;;;10.70;92.90;;;;;;4947948;29;20024;-89
2023/11/11 11:32:12;;;;;;;2.10;1.23;;;10.60;92.70;;;;;;4966535;28;20042;-91
2023/11/11 11:34:43;;;;;;;3.05;1.40;;;10.70;92.70;;;;;;4946951;29;20024;-91
2023/11/11 11:37:12;;;;;;;3.83;1.50;;;10.70;92.70;;;;;;4948389;28;20399;-90
2023/11/11 11:39:50;;;;;;;1.20;1.10;;;10.70;92.80;;;;;;4948388;29;20043;-91
2023/11/11 11:42:24;;;;;;;1.15;0.93;;;10.90;93.40;;;;;;4934501;29;20063;-90
2023/11/11 11:44:58;;;;;;;1.75;1.10;;;12.00;93.10;;;;;;4932503;29;20040;-89
2023/11/11 11:47:35;;;;;;;1.73;0.82;;;13.90;90.00;;;;;;4941148;29;20024;-92
2023/11/11 11:50:05;;;;;;;2.53;1.30;;;14.90;84.40;;;;;;4913231;29;20098;-91
2023/11/11 11:52:31;;;;;;;1.45;1.20;;;15.60;81.00;;;;;;4931009;29;20028;-90
2023/11/11 11:54:57;;;;;;;1.45;0.80;;;16.20;79.00;;;;;;4921003;29;20033;-91
2023/11/11 11:57:23;;;;;;;2.15;1.00;;;16.50;77.10;;;;;;4940360;29;20028;-90
2023/11/11 12:00:13;;;;;;;1.15;0.80;;;16.00;76.20;;;;;;4942219;29;20024;-92
2023/11/11 12:02:40;;;;;;;0.93;0.85;;;14.70;79.10;;;;;;4943092;29;20112;-92
2023/11/11 12:05:10;;;;;;;1.58;0.90;;;13.70;81.70;;;;;;4943215;29;20088;-90
2023/11/11 12:07:37;;;;;;;0.70;0.70;;;13.00;84.20;;;;;;4933491;29;20067;-91
2023/11/11 12:10:11;;;;;;;2.15;1.00;;;12.70;86.70;;;;;;4931022;29;20028;-92
2023/11/11 12:12:37;;;;;;;2.33;0.80;;;13.50;87.40;;;;;;4940398;28;20039;-92
2023/11/11 12:15:16;;;;;;;1.98;0.75;;;14.70;83.80;;;;;;4926169;29;20102;-90
2023/11/11 12:17:45;;;;;;;0.60;0.60;;;14.70;82.10;;;;;;4922239;29;20028;-90
2023/11/11 12:20:14;;;;;;;1.95;0.70;;;15.10;81.20;;;;;;4938144;29;20027;-90
2023/11/11 12:22:49;;;;;;;2.08;0.90;;;15.50;79.80;;;;;;4930121;29;20023;-90
2023/11/11 12:53:43;;;;;;;1.02;0.77;;;16.80;76.50;;;;;;4229366;27;20094;-86
2023/11/11 12:56:11;;;;;;;1.27;0.65;;;16.40;76.30;;;;;;4937831;29;20012;-86
2023/11/11 12:58:36;;;;;;;1.08;0.60;;;16.20;77.20;;;;;;4952091;28;20014;-86
2023/11/11 13:01:04;;;;;;;0.70;0.60;;;15.90;78.20;;;;;;4942985;29;20056;-84
2023/11/11 13:03:31;;;;;;;1.88;0.73;;;15.20;79.30;;;;;;4923261;29;20009;-86
2023/11/11 13:05:59;;;;;;;1.08;0.63;;;14.60;80.90;;;;;;4939153;29;20027;-85
2023/11/11 13:08:26;;;;;;;1.05;0.65;;;14.20;82.20;;;;;;4946577;28;20004;-85
2023/11/11 13:10:56;;;;;;;0.98;0.90;;;13.80;83.20;;;;;;4927927;29;20027;-86
2023/11/11 13:13:23;;;;;;;0.93;0.63;;;13.60;83.90;;;;;;4922166;28;20013;-86
2023/11/11 13:15:48;;;;;;;0.60;0.60;;;13.60;84.70;;;;;;4942785;29;20060;-85
2023/11/11 13:18:18;;;;;;;1.52;1.05;;;13.50;84.60;;;;;;4923325;29;20041;-86
2023/11/11 13:20:47;;;;;;;0.75;0.50;;;13.40;84.90;;;;;;4921463;29;20012;-85
2023/11/11 13:23:17;;;;;;;1.05;0.70;;;13.40;85.30;;;;;;4938336;28;20021;-86